sensor_id;sensor_type;location;lat;lon;timestamp;temperature;humidity
23801;DHT22;12081;48.614;10.226;2022-08-01T00:01:22;19.00;99.90
23801;DHT22;12081;48.614;10.226;2022-08-01T00:04:06;18.90;99.90
23801;DHT22;12081;48.614;10.226;2022-08-01T00:06:50;18.90;99.90
23801;DHT22;12081;48.614;10.226;2022-08-01T00:09:35;18.80;99.90
23801;DHT22;12081;48.614;10.226;2022-08-01T00:12:19;18.80;99.90
23801;DHT22;12081;48.614;10.226;2022-08-01T00:15:08;18.70;99.90
23801;DHT22;12081;48.614;10.226;2022-08-01T00:17:52;18.70;99.90
23801;DHT22;12081;48.614;10.226;2022-08-01T00:20:36;18.90;99.90
23801;DHT22;12081;48.614;10.226;2022-08-01T00:23:20;18.80;99.90
23801;DHT22;12081;48.614;10.226;2022-08-01T00:26:04;18.90;99.90
23801;DHT22;12081;48.614;10.226;2022-08-01T00:28:48;18.80;99.90
23801;DHT22;12081;48.614;10.226;2022-08-01T00:31:32;18.80;99.90
23801;DHT22;12081;48.614;10.226;2022-08-01T00:34:16;18.80;99.90
23801;DHT22;12081;48.614;10.226;2022-08-01T00:37:01;18.60;99.90
23801;DHT22;12081;48.614;10.226;2022-08-01T00:39:45;18.60;99.90
23801;DHT22;12081;48.614;10.226;2022-08-01T00:42:29;18.80;99.90
23801;DHT22;12081;48.614;10.226;2022-08-01T00:45:13;18.80;99.90
23801;DHT22;12081;48.614;10.226;2022-08-01T00:47:57;18.70;99.90
23801;DHT22;12081;48.614;10.226;2022-08-01T00:53:16;18.60;99.90
23801;DHT22;12081;48.614;10.226;2022-08-01T02:05:39;17.80;99.90
23801;DHT22;12081;48.614;10.226;2022-08-01T02:08:59;16.50;99.90
23801;DHT22;12081;48.614;10.226;2022-08-01T02:11:48;17.80;99.90
23801;DHT22;12081;48.614;10.226;2022-08-01T02:14:37;16.00;99.90
23801;DHT22;12081;48.614;10.226;2022-08-01T02:17:23;17.30;99.90
23801;DHT22;12081;48.614;10.226;2022-08-01T02:20:09;17.50;99.90
23801;DHT22;12081;48.614;10.226;2022-08-01T02:23:00;17.70;99.90
23801;DHT22;12081;48.614;10.226;2022-08-01T02:25:49;18.00;99.90
23801;DHT22;12081;48.614;10.226;2022-08-01T02:28:40;19.10;99.90
23801;DHT22;12081;48.614;10.226;2022-08-01T02:31:26;17.70;99.90
23801;DHT22;12081;48.614;10.226;2022-08-01T02:34:18;17.70;99.90
23801;DHT22;12081;48.614;10.226;2022-08-01T02:37:10;18.50;99.90
23801;DHT22;12081;48.614;10.226;2022-08-01T02:40:11;16.50;99.90
23801;DHT22;12081;48.614;10.226;2022-08-01T02:43:02;16.30;99.90
23801;DHT22;12081;48.614;10.226;2022-08-01T02:45:51;17.50;99.90
23801;DHT22;12081;48.614;10.226;2022-08-01T02:48:40;17.30;99.90
23801;DHT22;12081;48.614;10.226;2022-08-01T02:51:26;18.40;99.90
23801;DHT22;12081;48.614;10.226;2022-08-01T02:54:12;17.60;99.90
23801;DHT22;12081;48.614;10.226;2022-08-01T02:57:01;17.50;99.90
23801;DHT22;12081;48.614;10.226;2022-08-01T02:59:46;17.60;99.90
23801;DHT22;12081;48.614;10.226;2022-08-01T03:02:39;17.20;99.90
23801;DHT22;12081;48.614;10.226;2022-08-01T03:05:27;17.20;99.90
23801;DHT22;12081;48.614;10.226;2022-08-01T03:08:18;18.00;99.90
23801;DHT22;12081;48.614;10.226;2022-08-01T03:11:08;18.00;99.90
23801;DHT22;12081;48.614;10.226;2022-08-01T03:21:28;17.70;99.90
23801;DHT22;12081;48.614;10.226;2022-08-01T03:24:21;17.10;99.90
23801;DHT22;12081;48.614;10.226;2022-08-01T03:27:11;16.90;99.90
23801;DHT22;12081;48.614;10.226;2022-08-01T03:29:57;17.70;99.90
23801;DHT22;12081;48.614;10.226;2022-08-01T03:32:53;16.80;99.90
23801;DHT22;12081;48.614;10.226;2022-08-01T03:35:54;19.50;99.90
23801;DHT22;12081;48.614;10.226;2022-08-01T05:28:59;19.00;99.90
23801;DHT22;12081;48.614;10.226;2022-08-01T05:31:43;18.90;99.90
23801;DHT22;12081;48.614;10.226;2022-08-01T05:34:27;19.10;99.90
23801;DHT22;12081;48.614;10.226;2022-08-01T05:37:12;19.10;99.90
23801;DHT22;12081;48.614;10.226;2022-08-01T05:39:56;19.00;99.90
23801;DHT22;12081;48.614;10.226;2022-08-01T05:42:40;19.00;99.90
23801;DHT22;12081;48.614;10.226;2022-08-01T05:45:24;19.50;99.90
23801;DHT22;12081;48.614;10.226;2022-08-01T05:48:08;19.20;99.90
23801;DHT22;12081;48.614;10.226;2022-08-01T05:50:53;19.60;99.90
23801;DHT22;12081;48.614;10.226;2022-08-01T05:53:37;19.40;99.90
23801;DHT22;12081;48.614;10.226;2022-08-01T05:56:21;19.50;99.90
23801;DHT22;12081;48.614;10.226;2022-08-01T05:59:06;19.60;99.90
23801;DHT22;12081;48.614;10.226;2022-08-01T06:01:50;19.80;99.90
23801;DHT22;12081;48.614;10.226;2022-08-01T06:04:34;19.90;99.90
23801;DHT22;12081;48.614;10.226;2022-08-01T06:07:18;20.00;99.90
23801;DHT22;12081;48.614;10.226;2022-08-01T06:10:03;20.10;99.90
23801;DHT22;12081;48.614;10.226;2022-08-01T06:12:47;20.20;99.90
23801;DHT22;12081;48.614;10.226;2022-08-01T06:15:32;20.30;99.90
23801;DHT22;12081;48.614;10.226;2022-08-01T06:18:17;20.50;99.90
23801;DHT22;12081;48.614;10.226;2022-08-01T06:21:01;20.30;99.90
23801;DHT22;12081;48.614;10.226;2022-08-01T06:23:45;20.50;99.90
23801;DHT22;12081;48.614;10.226;2022-08-01T06:26:30;20.60;99.90
23801;DHT22;12081;48.614;10.226;2022-08-01T06:29:15;20.60;99.90
23801;DHT22;12081;48.614;10.226;2022-08-01T06:31:59;20.90;99.90
23801;DHT22;12081;48.614;10.226;2022-08-01T06:34:43;21.00;99.90
23801;DHT22;12081;48.614;10.226;2022-08-01T06:37:31;21.00;99.90
23801;DHT22;12081;48.614;10.226;2022-08-01T06:40:15;20.80;99.90
23801;DHT22;12081;48.614;10.226;2022-08-01T06:43:01;20.90;99.90
23801;DHT22;12081;48.614;10.226;2022-08-01T06:45:45;21.00;99.90
23801;DHT22;12081;48.614;10.226;2022-08-01T06:48:29;21.50;99.90
23801;DHT22;12081;48.614;10.226;2022-08-01T06:51:13;22.10;99.90
23801;DHT22;12081;48.614;10.226;2022-08-01T06:54:00;22.70;99.90
23801;DHT22;12081;48.614;10.226;2022-08-01T06:56:45;23.30;99.90
23801;DHT22;12081;48.614;10.226;2022-08-01T06:59:29;23.90;99.90
23801;DHT22;12081;48.614;10.226;2022-08-01T07:02:13;24.50;99.90
23801;DHT22;12081;48.614;10.226;2022-08-01T07:04:57;25.30;98.50
23801;DHT22;12081;48.614;10.226;2022-08-01T07:07:44;25.60;95.10
23801;DHT22;12081;48.614;10.226;2022-08-01T07:10:28;26.00;94.80
23801;DHT22;12081;48.614;10.226;2022-08-01T07:13:12;26.80;92.50
23801;DHT22;12081;48.614;10.226;2022-08-01T07:15:57;27.40;88.70
23801;DHT22;12081;48.614;10.226;2022-08-01T07:18:41;27.70;83.50
23801;DHT22;12081;48.614;10.226;2022-08-01T07:21:26;28.20;80.60
23801;DHT22;12081;48.614;10.226;2022-08-01T07:24:12;28.30;78.20
23801;DHT22;12081;48.614;10.226;2022-08-01T07:26:56;28.70;73.50
23801;DHT22;12081;48.614;10.226;2022-08-01T07:29:42;29.20;72.60
23801;DHT22;12081;48.614;10.226;2022-08-01T07:32:26;29.50;71.80
23801;DHT22;12081;48.614;10.226;2022-08-01T07:35:10;30.10;68.00
23801;DHT22;12081;48.614;10.226;2022-08-01T07:37:54;30.10;65.80
23801;DHT22;12081;48.614;10.226;2022-08-01T07:40:38;30.60;62.00
23801;DHT22;12081;48.614;10.226;2022-08-01T07:43:22;31.00;60.40
23801;DHT22;12081;48.614;10.226;2022-08-01T07:46:06;31.50;58.70
23801;DHT22;12081;48.614;10.226;2022-08-01T07:48:50;31.50;57.70
23801;DHT22;12081;48.614;10.226;2022-08-01T07:51:34;31.30;58.00
23801;DHT22;12081;48.614;10.226;2022-08-01T07:54:18;31.50;57.30
23801;DHT22;12081;48.614;10.226;2022-08-01T07:57:03;31.80;57.00
23801;DHT22;12081;48.614;10.226;2022-08-01T07:59:47;32.10;55.70
23801;DHT22;12081;48.614;10.226;2022-08-01T08:02:32;32.50;56.00
23801;DHT22;12081;48.614;10.226;2022-08-01T08:05:16;33.00;54.90
23801;DHT22;12081;48.614;10.226;2022-08-01T08:08:08;33.40;52.80
23801;DHT22;12081;48.614;10.226;2022-08-01T08:10:52;33.30;52.50
23801;DHT22;12081;48.614;10.226;2022-08-01T08:13:36;33.70;52.10
23801;DHT22;12081;48.614;10.226;2022-08-01T08:16:20;33.50;52.20
23801;DHT22;12081;48.614;10.226;2022-08-01T08:19:05;33.20;52.40
23801;DHT22;12081;48.614;10.226;2022-08-01T08:21:49;32.90;52.80
23801;DHT22;12081;48.614;10.226;2022-08-01T08:24:34;33.20;53.70
23801;DHT22;12081;48.614;10.226;2022-08-01T08:27:18;33.20;52.10
23801;DHT22;12081;48.614;10.226;2022-08-01T08:30:03;33.00;52.30
23801;DHT22;12081;48.614;10.226;2022-08-01T08:32:51;33.30;52.10
23801;DHT22;12081;48.614;10.226;2022-08-01T08:35:35;33.20;51.50
23801;DHT22;12081;48.614;10.226;2022-08-01T08:38:19;32.60;52.70
23801;DHT22;12081;48.614;10.226;2022-08-01T08:41:03;32.10;52.80
23801;DHT22;12081;48.614;10.226;2022-08-01T08:43:47;32.20;52.90
23801;DHT22;12081;48.614;10.226;2022-08-01T08:46:33;32.90;52.70
23801;DHT22;12081;48.614;10.226;2022-08-01T08:49:20;33.40;51.40
23801;DHT22;12081;48.614;10.226;2022-08-01T08:52:05;33.10;51.60
23801;DHT22;12081;48.614;10.226;2022-08-01T08:54:50;32.30;52.60
23801;DHT22;12081;48.614;10.226;2022-08-01T08:57:35;31.30;53.50
23801;DHT22;12081;48.614;10.226;2022-08-01T09:00:23;30.30;55.30
23801;DHT22;12081;48.614;10.226;2022-08-01T09:03:07;30.20;57.30
23801;DHT22;12081;48.614;10.226;2022-08-01T09:05:51;30.30;55.90
23801;DHT22;12081;48.614;10.226;2022-08-01T09:08:35;30.20;56.50
23801;DHT22;12081;48.614;10.226;2022-08-01T09:11:19;30.20;56.50
23801;DHT22;12081;48.614;10.226;2022-08-01T09:14:15;30.70;56.90
23801;DHT22;12081;48.614;10.226;2022-08-01T09:17:07;30.60;56.00
23801;DHT22;12081;48.614;10.226;2022-08-01T09:19:54;30.70;55.90
23801;DHT22;12081;48.614;10.226;2022-08-01T09:22:39;31.00;55.60
23801;DHT22;12081;48.614;10.226;2022-08-01T09:25:23;31.50;55.20
23801;DHT22;12081;48.614;10.226;2022-08-01T09:28:07;31.60;55.20
23801;DHT22;12081;48.614;10.226;2022-08-01T09:30:51;30.10;54.80
23801;DHT22;12081;48.614;10.226;2022-08-01T09:36:46;30.90;55.70
23801;DHT22;12081;48.614;10.226;2022-08-01T09:39:34;30.60;55.20
23801;DHT22;12081;48.614;10.226;2022-08-01T09:42:23;30.60;55.70
23801;DHT22;12081;48.614;10.226;2022-08-01T09:45:08;30.00;55.40
23801;DHT22;12081;48.614;10.226;2022-08-01T09:47:52;29.60;56.70
23801;DHT22;12081;48.614;10.226;2022-08-01T09:50:48;30.40;56.90
23801;DHT22;12081;48.614;10.226;2022-08-01T09:53:45;30.40;55.70
23801;DHT22;12081;48.614;10.226;2022-08-01T09:56:39;30.90;54.80
23801;DHT22;12081;48.614;10.226;2022-08-01T09:59:35;31.50;53.50
23801;DHT22;12081;48.614;10.226;2022-08-01T10:02:32;32.00;53.80
23801;DHT22;12081;48.614;10.226;2022-08-01T10:05:16;32.10;53.80
23801;DHT22;12081;48.614;10.226;2022-08-01T10:08:02;32.60;53.40
23801;DHT22;12081;48.614;10.226;2022-08-01T10:11:07;32.90;52.30
23801;DHT22;12081;48.614;10.226;2022-08-01T10:13:52;32.80;51.40
23801;DHT22;12081;48.614;10.226;2022-08-01T10:16:37;33.10;51.20
23801;DHT22;12081;48.614;10.226;2022-08-01T10:19:24;32.80;51.50
23801;DHT22;12081;48.614;10.226;2022-08-01T10:22:13;32.90;51.50
23801;DHT22;12081;48.614;10.226;2022-08-01T10:25:03;33.10;50.80
23801;DHT22;12081;48.614;10.226;2022-08-01T10:27:53;32.60;51.10
23801;DHT22;12081;48.614;10.226;2022-08-01T10:30:42;32.00;52.30
23801;DHT22;12081;48.614;10.226;2022-08-01T10:33:28;31.60;53.80
23801;DHT22;12081;48.614;10.226;2022-08-01T10:36:13;31.80;54.00
23801;DHT22;12081;48.614;10.226;2022-08-01T10:38:58;32.10;53.60
23801;DHT22;12081;48.614;10.226;2022-08-01T10:41:42;32.30;51.50
23801;DHT22;12081;48.614;10.226;2022-08-01T10:44:28;32.30;52.80
23801;DHT22;12081;48.614;10.226;2022-08-01T10:47:37;32.80;51.40
23801;DHT22;12081;48.614;10.226;2022-08-01T10:50:32;32.90;51.40
23801;DHT22;12081;48.614;10.226;2022-08-01T10:53:25;32.30;50.80
23801;DHT22;12081;48.614;10.226;2022-08-01T10:56:10;32.80;50.40
23801;DHT22;12081;48.614;10.226;2022-08-01T10:59:03;33.10;50.00
23801;DHT22;12081;48.614;10.226;2022-08-01T11:02:04;33.40;49.70
23801;DHT22;12081;48.614;10.226;2022-08-01T11:04:55;32.80;51.00
23801;DHT22;12081;48.614;10.226;2022-08-01T11:07:48;32.40;51.30
23801;DHT22;12081;48.614;10.226;2022-08-01T11:10:42;32.50;51.30
23801;DHT22;12081;48.614;10.226;2022-08-01T11:16:42;34.10;49.30
23801;DHT22;12081;48.614;10.226;2022-08-01T11:23:15;33.80;47.30
23801;DHT22;12081;48.614;10.226;2022-08-01T11:29:10;30.90;53.80
23801;DHT22;12081;48.614;10.226;2022-08-01T11:32:25;30.10;55.40
23801;DHT22;12081;48.614;10.226;2022-08-01T11:35:10;29.30;57.20
23801;DHT22;12081;48.614;10.226;2022-08-01T11:37:54;28.90;57.70
23801;DHT22;12081;48.614;10.226;2022-08-01T11:40:41;28.50;58.70
23801;DHT22;12081;48.614;10.226;2022-08-01T11:43:26;28.10;59.20
23801;DHT22;12081;48.614;10.226;2022-08-01T11:46:10;27.90;59.60
23801;DHT22;12081;48.614;10.226;2022-08-01T11:49:27;27.60;60.60
23801;DHT22;12081;48.614;10.226;2022-08-01T11:55:01;27.40;61.60
23801;DHT22;12081;48.614;10.226;2022-08-01T11:57:48;27.50;62.50
23801;DHT22;12081;48.614;10.226;2022-08-01T12:00:33;27.90;60.80
23801;DHT22;12081;48.614;10.226;2022-08-01T12:03:20;28.40;61.00
23801;DHT22;12081;48.614;10.226;2022-08-01T12:06:06;29.60;58.00
23801;DHT22;12081;48.614;10.226;2022-08-01T12:08:50;30.80;55.10
23801;DHT22;12081;48.614;10.226;2022-08-01T12:11:34;31.70;54.00
23801;DHT22;12081;48.614;10.226;2022-08-01T12:14:19;32.60;51.80
23801;DHT22;12081;48.614;10.226;2022-08-01T12:17:04;33.60;51.70
23801;DHT22;12081;48.614;10.226;2022-08-01T12:19:49;34.40;49.90
23801;DHT22;12081;48.614;10.226;2022-08-01T12:22:33;34.60;50.30
23801;DHT22;12081;48.614;10.226;2022-08-01T12:25:19;35.20;47.80
23801;DHT22;12081;48.614;10.226;2022-08-01T12:28:08;35.60;46.60
23801;DHT22;12081;48.614;10.226;2022-08-01T12:30:53;36.30;46.10
23801;DHT22;12081;48.614;10.226;2022-08-01T12:33:37;35.80;46.20
23801;DHT22;12081;48.614;10.226;2022-08-01T12:36:28;35.10;46.90
23801;DHT22;12081;48.614;10.226;2022-08-01T12:39:14;34.40;47.40
23801;DHT22;12081;48.614;10.226;2022-08-01T12:41:58;33.40;48.40
23801;DHT22;12081;48.614;10.226;2022-08-01T12:44:45;32.50;49.90
23801;DHT22;12081;48.614;10.226;2022-08-01T12:47:31;31.90;50.90
23801;DHT22;12081;48.614;10.226;2022-08-01T12:50:19;31.50;51.20
23801;DHT22;12081;48.614;10.226;2022-08-01T12:53:04;30.80;51.90
23801;DHT22;12081;48.614;10.226;2022-08-01T12:55:51;30.80;52.90
23801;DHT22;12081;48.614;10.226;2022-08-01T12:58:36;30.60;52.50
23801;DHT22;12081;48.614;10.226;2022-08-01T13:01:26;30.30;53.60
23801;DHT22;12081;48.614;10.226;2022-08-01T13:04:11;30.70;53.50
23801;DHT22;12081;48.614;10.226;2022-08-01T13:06:56;31.10;53.00
23801;DHT22;12081;48.614;10.226;2022-08-01T13:09:49;31.10;53.00
23801;DHT22;12081;48.614;10.226;2022-08-01T13:12:35;31.50;52.30
23801;DHT22;12081;48.614;10.226;2022-08-01T13:15:21;31.60;50.60
23801;DHT22;12081;48.614;10.226;2022-08-01T13:18:29;31.60;52.00
23801;DHT22;12081;48.614;10.226;2022-08-01T13:21:16;31.50;51.90
23801;DHT22;12081;48.614;10.226;2022-08-01T13:24:11;31.10;52.30
23801;DHT22;12081;48.614;10.226;2022-08-01T13:26:58;30.70;53.50
23801;DHT22;12081;48.614;10.226;2022-08-01T13:29:43;30.70;54.30
23801;DHT22;12081;48.614;10.226;2022-08-01T13:32:29;30.70;54.10
23801;DHT22;12081;48.614;10.226;2022-08-01T13:35:14;30.80;53.50
23801;DHT22;12081;48.614;10.226;2022-08-01T13:37:58;30.90;53.00
23801;DHT22;12081;48.614;10.226;2022-08-01T13:40:43;30.90;53.30
23801;DHT22;12081;48.614;10.226;2022-08-01T13:43:27;30.30;53.30
23801;DHT22;12081;48.614;10.226;2022-08-01T13:46:12;30.10;53.90
23801;DHT22;12081;48.614;10.226;2022-08-01T13:48:56;30.20;54.70
23801;DHT22;12081;48.614;10.226;2022-08-01T13:51:41;29.90;54.60
23801;DHT22;12081;48.614;10.226;2022-08-01T13:54:26;29.80;55.60
23801;DHT22;12081;48.614;10.226;2022-08-01T13:57:10;29.70;56.30
23801;DHT22;12081;48.614;10.226;2022-08-01T13:59:55;29.60;56.90
23801;DHT22;12081;48.614;10.226;2022-08-01T14:02:41;29.20;56.90
23801;DHT22;12081;48.614;10.226;2022-08-01T14:05:26;29.00;55.60
23801;DHT22;12081;48.614;10.226;2022-08-01T14:08:11;29.10;56.60
23801;DHT22;12081;48.614;10.226;2022-08-01T14:10:56;29.20;55.90
23801;DHT22;12081;48.614;10.226;2022-08-01T14:13:43;29.30;55.70
23801;DHT22;12081;48.614;10.226;2022-08-01T14:16:28;29.50;56.50
23801;DHT22;12081;48.614;10.226;2022-08-01T14:19:13;29.30;56.10
23801;DHT22;12081;48.614;10.226;2022-08-01T14:22:00;29.00;54.90
23801;DHT22;12081;48.614;10.226;2022-08-01T14:24:45;29.00;56.00
23801;DHT22;12081;48.614;10.226;2022-08-01T14:27:29;28.90;55.50
23801;DHT22;12081;48.614;10.226;2022-08-01T14:30:15;29.00;55.10
23801;DHT22;12081;48.614;10.226;2022-08-01T14:32:59;29.10;54.60
23801;DHT22;12081;48.614;10.226;2022-08-01T14:35:44;29.30;54.80
23801;DHT22;12081;48.614;10.226;2022-08-01T14:38:28;29.50;53.10
23801;DHT22;12081;48.614;10.226;2022-08-01T14:41:14;29.90;54.30
23801;DHT22;12081;48.614;10.226;2022-08-01T14:43:58;30.00;53.60
23801;DHT22;12081;48.614;10.226;2022-08-01T14:46:43;30.20;54.60
23801;DHT22;12081;48.614;10.226;2022-08-01T14:49:28;30.20;56.10
23801;DHT22;12081;48.614;10.226;2022-08-01T14:52:12;30.40;53.20
23801;DHT22;12081;48.614;10.226;2022-08-01T14:54:57;30.50;53.60
23801;DHT22;12081;48.614;10.226;2022-08-01T14:57:42;30.60;53.70
23801;DHT22;12081;48.614;10.226;2022-08-01T15:04:07;30.80;53.50
23801;DHT22;12081;48.614;10.226;2022-08-01T15:06:52;30.60;52.40
23801;DHT22;12081;48.614;10.226;2022-08-01T15:09:37;30.50;54.30
23801;DHT22;12081;48.614;10.226;2022-08-01T15:12:22;30.70;52.80
23801;DHT22;12081;48.614;10.226;2022-08-01T15:15:07;30.80;51.80
23801;DHT22;12081;48.614;10.226;2022-08-01T15:17:52;30.70;52.60
23801;DHT22;12081;48.614;10.226;2022-08-01T15:20:36;30.80;53.60
23801;DHT22;12081;48.614;10.226;2022-08-01T15:23:21;30.90;52.70
23801;DHT22;12081;48.614;10.226;2022-08-01T15:26:05;30.90;53.60
23801;DHT22;12081;48.614;10.226;2022-08-01T15:28:57;30.90;53.50
23801;DHT22;12081;48.614;10.226;2022-08-01T15:31:42;30.80;53.10
23801;DHT22;12081;48.614;10.226;2022-08-01T15:34:26;31.00;53.00
23801;DHT22;12081;48.614;10.226;2022-08-01T15:37:11;31.10;51.40
23801;DHT22;12081;48.614;10.226;2022-08-01T15:39:56;30.90;51.70
23801;DHT22;12081;48.614;10.226;2022-08-01T15:42:41;30.60;53.20
23801;DHT22;12081;48.614;10.226;2022-08-01T15:45:25;30.20;54.70
23801;DHT22;12081;48.614;10.226;2022-08-01T15:48:10;29.80;55.50
23801;DHT22;12081;48.614;10.226;2022-08-01T15:50:55;29.50;56.00
23801;DHT22;12081;48.614;10.226;2022-08-01T15:53:40;29.40;56.00
23801;DHT22;12081;48.614;10.226;2022-08-01T15:56:26;29.20;56.10
23801;DHT22;12081;48.614;10.226;2022-08-01T15:59:10;29.10;56.00
23801;DHT22;12081;48.614;10.226;2022-08-01T16:01:55;29.00;56.70
23801;DHT22;12081;48.614;10.226;2022-08-01T16:04:40;28.90;56.90
23801;DHT22;12081;48.614;10.226;2022-08-01T16:07:24;28.80;56.40
23801;DHT22;12081;48.614;10.226;2022-08-01T16:10:09;28.80;56.60
23801;DHT22;12081;48.614;10.226;2022-08-01T16:12:54;28.60;57.00
23801;DHT22;12081;48.614;10.226;2022-08-01T16:15:39;28.50;57.70
23801;DHT22;12081;48.614;10.226;2022-08-01T16:18:23;28.30;59.20
23801;DHT22;12081;48.614;10.226;2022-08-01T16:21:08;28.20;57.80
23801;DHT22;12081;48.614;10.226;2022-08-01T16:23:54;28.10;57.50
23801;DHT22;12081;48.614;10.226;2022-08-01T16:26:39;28.00;57.60
23801;DHT22;12081;48.614;10.226;2022-08-01T16:29:23;27.90;57.80
23801;DHT22;12081;48.614;10.226;2022-08-01T16:32:13;27.80;58.90
23801;DHT22;12081;48.614;10.226;2022-08-01T16:34:58;27.70;60.60
23801;DHT22;12081;48.614;10.226;2022-08-01T16:37:42;27.50;61.20
23801;DHT22;12081;48.614;10.226;2022-08-01T16:40:27;27.30;60.10
23801;DHT22;12081;48.614;10.226;2022-08-01T16:43:12;27.10;59.40
23801;DHT22;12081;48.614;10.226;2022-08-01T16:45:56;26.90;60.50
23801;DHT22;12081;48.614;10.226;2022-08-01T16:48:41;26.80;64.30
23801;DHT22;12081;48.614;10.226;2022-08-01T16:51:27;26.60;66.60
23801;DHT22;12081;48.614;10.226;2022-08-01T16:54:12;26.20;68.30
23801;DHT22;12081;48.614;10.226;2022-08-01T16:56:57;25.90;70.40
23801;DHT22;12081;48.614;10.226;2022-08-01T16:59:43;25.70;70.90
23801;DHT22;12081;48.614;10.226;2022-08-01T17:02:28;25.30;71.70
23801;DHT22;12081;48.614;10.226;2022-08-01T17:05:12;25.10;73.10
23801;DHT22;12081;48.614;10.226;2022-08-01T17:07:56;25.00;73.40
23801;DHT22;12081;48.614;10.226;2022-08-01T17:10:41;24.70;71.60
23801;DHT22;12081;48.614;10.226;2022-08-01T17:13:26;24.70;71.70
23801;DHT22;12081;48.614;10.226;2022-08-01T17:16:11;24.50;76.20
23801;DHT22;12081;48.614;10.226;2022-08-01T17:18:55;24.30;79.50
23801;DHT22;12081;48.614;10.226;2022-08-01T17:21:40;23.80;80.20
23801;DHT22;12081;48.614;10.226;2022-08-01T17:24:24;24.00;95.00
23801;DHT22;12081;48.614;10.226;2022-08-01T17:27:09;22.90;99.90
23801;DHT22;12081;48.614;10.226;2022-08-01T17:29:54;22.50;99.90
23801;DHT22;12081;48.614;10.226;2022-08-01T17:32:39;22.20;99.90
23801;DHT22;12081;48.614;10.226;2022-08-01T17:35:25;21.80;99.90
23801;DHT22;12081;48.614;10.226;2022-08-01T17:38:10;21.40;99.90
23801;DHT22;12081;48.614;10.226;2022-08-01T17:40:55;21.00;99.90
23801;DHT22;12081;48.614;10.226;2022-08-01T17:43:39;20.70;99.90
23801;DHT22;12081;48.614;10.226;2022-08-01T17:46:24;20.50;99.90
23801;DHT22;12081;48.614;10.226;2022-08-01T17:49:09;20.30;99.90
23801;DHT22;12081;48.614;10.226;2022-08-01T17:55:35;19.90;99.90
23801;DHT22;12081;48.614;10.226;2022-08-01T17:58:19;19.70;99.90
23801;DHT22;12081;48.614;10.226;2022-08-01T18:01:04;19.60;99.90
23801;DHT22;12081;48.614;10.226;2022-08-01T18:03:48;19.50;99.90
23801;DHT22;12081;48.614;10.226;2022-08-01T18:06:33;19.40;99.90
23801;DHT22;12081;48.614;10.226;2022-08-01T18:09:17;19.50;99.90
23801;DHT22;12081;48.614;10.226;2022-08-01T18:12:02;19.30;99.90
23801;DHT22;12081;48.614;10.226;2022-08-01T18:14:47;19.30;99.90
23801;DHT22;12081;48.614;10.226;2022-08-01T18:17:32;19.20;99.90
23801;DHT22;12081;48.614;10.226;2022-08-01T18:23:57;19.20;99.90
23801;DHT22;12081;48.614;10.226;2022-08-01T18:26:43;19.20;99.90
23801;DHT22;12081;48.614;10.226;2022-08-01T18:29:29;19.10;99.90
23801;DHT22;12081;48.614;10.226;2022-08-01T18:32:13;19.10;99.90
23801;DHT22;12081;48.614;10.226;2022-08-01T18:34:58;19.10;99.90
23801;DHT22;12081;48.614;10.226;2022-08-01T18:37:42;19.10;99.90
23801;DHT22;12081;48.614;10.226;2022-08-01T18:40:27;19.00;99.90
23801;DHT22;12081;48.614;10.226;2022-08-01T18:43:11;19.10;99.90
23801;DHT22;12081;48.614;10.226;2022-08-01T18:45:56;19.00;99.90
23801;DHT22;12081;48.614;10.226;2022-08-01T18:48:41;19.00;99.90
23801;DHT22;12081;48.614;10.226;2022-08-01T18:51:25;19.00;99.90
23801;DHT22;12081;48.614;10.226;2022-08-01T18:54:15;18.90;99.90
23801;DHT22;12081;48.614;10.226;2022-08-01T18:57:00;18.80;99.90
23801;DHT22;12081;48.614;10.226;2022-08-01T18:59:45;18.80;99.90
23801;DHT22;12081;48.614;10.226;2022-08-01T19:02:29;18.80;99.90
23801;DHT22;12081;48.614;10.226;2022-08-01T19:05:14;18.80;99.90
23801;DHT22;12081;48.614;10.226;2022-08-01T19:07:59;18.80;99.90
23801;DHT22;12081;48.614;10.226;2022-08-01T19:10:43;18.80;99.90
23801;DHT22;12081;48.614;10.226;2022-08-01T19:13:28;18.70;99.90
23801;DHT22;12081;48.614;10.226;2022-08-01T19:16:14;18.70;99.90
23801;DHT22;12081;48.614;10.226;2022-08-01T19:19:03;18.70;99.90
23801;DHT22;12081;48.614;10.226;2022-08-01T19:21:48;18.60;99.90
23801;DHT22;12081;48.614;10.226;2022-08-01T19:24:33;18.70;99.90
23801;DHT22;12081;48.614;10.226;2022-08-01T19:27:20;18.70;99.90
23801;DHT22;12081;48.614;10.226;2022-08-01T19:30:08;19.30;99.90
23801;DHT22;12081;48.614;10.226;2022-08-01T19:32:53;18.70;99.90
23801;DHT22;12081;48.614;10.226;2022-08-01T19:35:39;18.70;99.90
23801;DHT22;12081;48.614;10.226;2022-08-01T19:38:26;18.70;99.90
23801;DHT22;12081;48.614;10.226;2022-08-01T19:41:11;18.70;99.90
23801;DHT22;12081;48.614;10.226;2022-08-01T19:43:58;18.70;99.90
23801;DHT22;12081;48.614;10.226;2022-08-01T19:46:47;18.60;99.90
23801;DHT22;12081;48.614;10.226;2022-08-01T19:49:31;18.60;99.90
23801;DHT22;12081;48.614;10.226;2022-08-01T19:52:18;18.70;99.90
23801;DHT22;12081;48.614;10.226;2022-08-01T19:55:07;18.60;99.90
23801;DHT22;12081;48.614;10.226;2022-08-01T19:57:53;18.60;99.90
23801;DHT22;12081;48.614;10.226;2022-08-01T20:00:38;18.60;99.90
23801;DHT22;12081;48.614;10.226;2022-08-01T20:03:23;18.70;99.90
23801;DHT22;12081;48.614;10.226;2022-08-01T20:06:11;19.30;99.90
23801;DHT22;12081;48.614;10.226;2022-08-01T20:08:57;18.60;99.90
23801;DHT22;12081;48.614;10.226;2022-08-01T20:11:50;19.50;99.90
23801;DHT22;12081;48.614;10.226;2022-08-01T20:14:34;19.30;99.90
23801;DHT22;12081;48.614;10.226;2022-08-01T20:17:20;18.60;99.90
23801;DHT22;12081;48.614;10.226;2022-08-01T20:23:47;18.50;99.90
23801;DHT22;12081;48.614;10.226;2022-08-01T20:26:34;18.40;99.90
23801;DHT22;12081;48.614;10.226;2022-08-01T20:29:19;18.30;99.90
23801;DHT22;12081;48.614;10.226;2022-08-01T20:32:07;18.30;99.90
23801;DHT22;12081;48.614;10.226;2022-08-01T20:34:51;18.30;99.90
23801;DHT22;12081;48.614;10.226;2022-08-01T20:37:38;18.10;99.90
23801;DHT22;12081;48.614;10.226;2022-08-01T20:40:25;18.00;99.90
23801;DHT22;12081;48.614;10.226;2022-08-01T20:43:11;18.50;99.90
23801;DHT22;12081;48.614;10.226;2022-08-01T20:45:56;18.00;99.90
23801;DHT22;12081;48.614;10.226;2022-08-01T20:48:42;18.00;99.90
23801;DHT22;12081;48.614;10.226;2022-08-01T20:51:29;17.90;99.90
23801;DHT22;12081;48.614;10.226;2022-08-01T20:54:14;17.90;99.90